Time;durP1;ratioP1;P1;durP2;ratioP2;P2;SDS_P1;SDS_P2;PMS_P1;PMS_P2;Temp;Humidity;BMP_temperature;BMP_pressure;BME280_temperature;BME280_humidity;BME280_pressure;Samples;Min_cycle;Max_cycle;Signal;HPM_P1;HPM_P2
2023/11/08 00:01:17;;;;;;;15.23;7.85;;;;;;;14.95;66.80;99875.47;5111255;28;20023;-40
2023/11/08 00:03:42;;;;;;;16.13;7.43;;;;;;;15.10;65.87;99867.00;5111381;28;20545;-41
2023/11/08 00:06:08;;;;;;;13.88;7.43;;;;;;;15.22;66.67;99862.47;5110816;28;20590;-41
2023/11/08 00:08:34;;;;;;;20.33;8.10;;;;;;;15.21;66.63;99870.72;5110611;28;20406;-41
2023/11/08 00:10:59;;;;;;;15.50;7.70;;;;;;;15.27;65.93;99867.16;5110854;28;20023;-40
2023/11/08 00:13:25;;;;;;;13.88;7.60;;;;;;;15.37;65.29;99869.25;5110821;28;20114;-41
2023/11/08 00:15:50;;;;;;;16.00;7.63;;;;;;;15.41;64.97;99855.13;5111133;28;20034;-40
2023/11/08 00:18:16;;;;;;;14.15;7.97;;;;;;;15.34;66.04;99848.25;5110798;28;20115;-40
2023/11/08 00:20:42;;;;;;;17.38;7.90;;;;;;;15.17;66.31;99843.59;5110924;28;20039;-41
2023/11/08 00:23:07;;;;;;;12.48;7.35;;;;;;;15.18;65.91;99852.44;5110935;28;20024;-40
2023/11/08 00:25:33;;;;;;;15.75;7.50;;;;;;;15.24;65.57;99852.31;5110827;28;20035;-41
2023/11/08 00:27:58;;;;;;;13.20;7.53;;;;;;;14.85;67.46;99857.25;5111772;28;20444;-41
2023/11/08 00:30:24;;;;;;;15.55;8.00;;;;;;;14.84;67.03;99852.94;5111561;28;20376;-41
2023/11/08 00:32:49;;;;;;;16.75;8.27;;;;;;;14.90;67.37;99845.03;5111584;28;20028;-41
2023/11/08 00:35:14;;;;;;;15.48;7.18;;;;;;;14.89;67.66;99833.50;5111566;28;20450;-41
2023/11/08 00:37:40;;;;;;;14.80;7.43;;;;;;;14.96;67.03;99830.72;5111132;28;20031;-40
2023/11/08 00:40:06;;;;;;;16.58;7.60;;;;;;;14.92;66.75;99819.63;5116295;28;20466;-40
2023/11/08 00:42:32;;;;;;;12.30;7.32;;;;;;;14.97;66.73;99811.75;5131910;27;20417;-40
2023/11/08 00:44:57;;;;;;;14.23;7.28;;;;;;;14.99;66.36;99804.28;5131796;27;20443;-40
2023/11/08 00:47:23;;;;;;;14.15;7.72;;;;;;;14.90;66.97;99791.47;5131721;28;20047;-40
2023/11/08 00:49:49;;;;;;;16.00;7.88;;;;;;;14.82;66.38;99790.75;5131616;27;20032;-41
2023/11/08 00:52:15;;;;;;;12.85;7.72;;;;;;;14.71;67.53;99786.16;5131816;28;20027;-41
2023/11/08 00:54:41;;;;;;;12.82;7.78;;;;;;;14.66;67.32;99783.38;5131707;28;20339;-40
2023/11/08 00:57:08;;;;;;;13.60;7.70;;;;;;;14.68;67.38;99783.97;5131658;28;20046;-40
2023/11/08 00:59:34;;;;;;;14.43;7.47;;;;;;;14.80;67.08;99771.41;5132028;28;20050;-40
2023/11/08 01:01:59;;;;;;;17.25;8.15;;;;;;;14.86;66.45;99775.84;5131838;28;20028;-40
2023/11/08 01:04:24;;;;;;;17.83;7.63;;;;;;;14.64;67.45;99775.56;5131461;28;20034;-40
2023/11/08 01:06:50;;;;;;;20.75;7.70;;;;;;;14.63;67.48;99770.44;5131511;28;20058;-39
2023/11/08 01:09:15;;;;;;;14.25;7.75;;;;;;;14.71;67.42;99780.00;5131489;28;20034;-40
2023/11/08 01:11:42;;;;;;;14.05;7.80;;;;;;;14.67;67.37;99787.69;5131518;28;20027;-40
2023/11/08 01:14:08;;;;;;;22.98;8.30;;;;;;;14.60;67.30;99777.09;5131320;28;20027;-40
2023/11/08 01:16:33;;;;;;;17.60;7.63;;;;;;;14.32;68.23;99795.56;5131528;28;20075;-40
2023/11/08 01:18:59;;;;;;;14.60;7.70;;;;;;;14.35;68.12;99785.22;5131217;28;20046;-40
2023/11/08 01:21:25;;;;;;;12.18;7.18;;;;;;;14.37;67.92;99783.13;5131472;28;20030;-40
2023/11/08 01:23:51;;;;;;;17.23;7.53;;;;;;;14.50;67.34;99775.97;5131372;28;20443;-40
2023/11/08 01:26:17;;;;;;;18.48;8.43;;;;;;;14.73;66.66;99777.91;5131513;28;20023;-40
2023/11/08 01:28:42;;;;;;;18.48;8.07;;;;;;;14.76;65.51;99767.56;5131334;28;20127;-40
2023/11/08 01:31:08;;;;;;;17.58;8.32;;;;;;;14.72;66.52;99758.34;5131396;28;20031;-40
2023/11/08 01:33:33;;;;;;;14.00;7.55;;;;;;;14.70;66.58;99747.06;5131563;28;20751;-40
2023/11/08 01:35:59;;;;;;;15.27;7.80;;;;;;;14.66;66.63;99738.66;5131273;28;20479;-40
2023/11/08 01:38:25;;;;;;;17.40;8.55;;;;;;;14.67;66.49;99734.13;5122992;28;20060;-39
2023/11/08 01:40:51;;;;;;;15.35;8.15;;;;;;;14.50;66.90;99741.16;5110746;28;20460;-39
2023/11/08 01:43:33;;;;;;;20.08;8.48;;;;;;;14.30;68.25;99731.56;5110371;28;20031;-40
2023/11/08 01:46:14;;;;;;;20.30;8.40;;;;;;;14.33;67.95;99744.47;5110824;28;20032;-39
2023/11/08 01:48:40;;;;;;;21.15;8.43;;;;;;;14.19;68.51;99743.84;5110610;28;20028;-40
2023/11/08 01:51:06;;;;;;;26.33;9.50;;;;;;;14.30;67.68;99734.25;5110656;28;20083;-40
2023/11/08 01:53:40;;;;;;;15.63;8.25;;;;;;;14.04;68.64;99736.22;5092229;28;20051;-40
2023/11/08 01:56:07;;;;;;;16.98;9.02;;;;;;;14.08;68.86;99734.72;5110501;28;20028;-40
2023/11/08 01:58:35;;;;;;;20.15;8.93;;;;;;;14.27;68.57;99729.31;5110611;28;20047;-42
2023/11/08 02:01:04;;;;;;;21.48;8.80;;;;;;;14.41;68.23;99722.75;5111247;28;20035;-39
2023/11/08 02:03:30;;;;;;;13.75;8.15;;;;;;;14.48;67.66;99720.75;5114043;28;20364;-40
2023/11/08 02:05:56;;;;;;;15.88;8.40;;;;;;;14.44;67.43;99722.28;5114091;28;20120;-40
2023/11/08 02:08:22;;;;;;;17.33;8.65;;;;;;;14.38;67.97;99720.53;5113608;28;20134;-40
2023/11/08 02:10:48;;;;;;;19.00;8.63;;;;;;;14.45;67.96;99721.25;5114053;28;20034;-40
2023/11/08 02:13:13;;;;;;;15.95;8.75;;;;;;;14.53;66.98;99717.41;5113927;28;20024;-40
2023/11/08 02:15:43;;;;;;;17.60;8.52;;;;;;;14.57;67.73;99712.44;5113841;28;20031;-40
2023/11/08 02:18:10;;;;;;;17.20;7.90;;;;;;;14.65;66.95;99712.91;5113845;28;20045;-40
2023/11/08 02:20:36;;;;;;;15.57;8.50;;;;;;;14.56;67.56;99706.22;5113715;28;20070;-39
2023/11/08 02:23:01;;;;;;;15.68;7.90;;;;;;;14.54;67.13;99718.22;5125361;27;20076;-40
2023/11/08 02:25:29;;;;;;;15.70;8.18;;;;;;;14.47;67.29;99719.16;5134169;27;20386;-39
2023/11/08 02:27:55;;;;;;;14.02;7.75;;;;;;;14.44;67.30;99719.59;5133973;27;20027;-40
2023/11/08 02:30:20;;;;;;;13.02;7.85;;;;;;;14.36;67.88;99714.59;5134308;27;20034;-40
2023/11/08 02:32:45;;;;;;;16.02;8.00;;;;;;;14.36;68.28;99711.91;5133997;27;20520;-40
2023/11/08 02:35:11;;;;;;;12.00;7.45;;;;;;;14.39;67.81;99710.63;5133897;27;20027;-40
2023/11/08 02:37:36;;;;;;;12.85;7.45;;;;;;;14.39;67.91;99705.25;5132287;27;20027;-40
2023/11/08 02:40:05;;;;;;;12.35;7.07;;;;;;;14.04;68.41;99703.31;5125739;27;20076;-40
2023/11/08 02:42:31;;;;;;;19.40;9.10;;;;;;;14.12;68.65;99707.53;5133900;27;20027;-40
2023/11/08 02:44:56;;;;;;;15.05;7.65;;;;;;;14.17;68.94;99700.44;5133876;27;20072;-40
2023/11/08 02:47:22;;;;;;;15.68;7.63;;;;;;;14.32;68.62;99720.59;5133733;27;20082;-40
2023/11/08 02:49:49;;;;;;;14.18;7.35;;;;;;;14.33;68.24;99720.38;5133503;27;20088;-40
2023/11/08 02:52:15;;;;;;;11.20;7.10;;;;;;;14.33;68.24;99741.78;5134058;27;20031;-39
2023/11/08 02:54:40;;;;;;;14.02;7.47;;;;;;;14.34;68.65;99730.06;5133891;27;20044;-40
2023/11/08 02:57:05;;;;;;;11.13;6.80;;;;;;;14.36;68.22;99727.97;5133493;27;20142;-39
2023/11/08 02:59:31;;;;;;;12.63;6.72;;;;;;;14.42;68.46;99734.25;5133599;27;20340;-40
2023/11/08 03:01:56;;;;;;;12.75;6.82;;;;;;;14.41;67.98;99719.22;5133547;27;20031;-40
2023/11/08 03:04:24;;;;;;;14.65;6.45;;;;;;;14.42;68.34;99727.03;5133658;27;20355;-40
2023/11/08 03:06:50;;;;;;;10.95;6.65;;;;;;;14.52;67.69;99731.03;5133513;27;20030;-41
2023/11/08 03:09:16;;;;;;;9.32;6.10;;;;;;;14.47;67.66;99726.38;5133219;27;20015;-40
2023/11/08 03:11:41;;;;;;;10.20;6.47;;;;;;;14.41;67.60;99713.88;5133260;27;20090;-40
2023/11/08 03:14:06;;;;;;;11.35;6.38;;;;;;;14.39;67.69;99715.97;5133301;27;20019;-40
2023/11/08 03:16:33;;;;;;;9.10;6.38;;;;;;;14.40;67.83;99720.28;5133104;27;20026;-40
2023/11/08 03:19:00;;;;;;;10.35;6.22;;;;;;;14.48;67.17;99728.78;5132797;27;20030;-40
2023/11/08 03:21:25;;;;;;;20.05;11.55;;;;;;;14.41;66.71;99733.47;5133015;27;20019;-40
2023/11/08 03:23:52;;;;;;;13.50;9.40;;;;;;;13.71;69.55;99728.63;5132921;27;20030;-41
2023/11/08 03:26:17;;;;;;;19.15;10.25;;;;;;;13.36;71.29;99733.75;5132969;27;20029;-40
2023/11/08 03:28:44;;;;;;;16.30;9.48;;;;;;;13.67;70.19;99746.97;5124414;27;20012;-40
2023/11/08 03:31:11;;;;;;;13.70;7.13;;;;;;;13.06;72.64;99756.63;5112452;28;20464;-41
2023/11/08 03:33:36;;;;;;;11.18;7.47;;;;;;;13.55;71.38;99747.94;5112440;28;20046;-40
2023/11/08 03:36:03;;;;;;;18.52;7.07;;;;;;;13.27;72.25;99742.03;5112351;28;20058;-40
2023/11/08 03:38:28;;;;;;;12.68;7.25;;;;;;;13.60;71.00;99748.09;5111658;28;20023;-40
2023/11/08 03:40:54;;;;;;;14.23;7.50;;;;;;;13.80;70.58;99743.34;5112092;28;20028;-41
2023/11/08 03:43:19;;;;;;;14.70;7.15;;;;;;;13.86;69.66;99738.94;5112330;28;20554;-40
2023/11/08 03:45:45;;;;;;;13.50;6.85;;;;;;;13.93;69.51;99739.66;5111690;28;20414;-40
2023/11/08 03:48:10;;;;;;;12.27;7.35;;;;;;;14.12;69.31;99737.75;5112264;28;20044;-40
2023/11/08 03:50:38;;;;;;;16.63;7.47;;;;;;;14.09;68.72;99732.88;5112423;28;20038;-41
2023/11/08 03:53:04;;;;;;;11.68;6.93;;;;;;;14.19;69.06;99746.53;5112070;28;20023;-40
2023/11/08 03:55:30;;;;;;;14.63;7.38;;;;;;;14.12;69.66;99742.31;5112058;28;20034;-39
2023/11/08 03:57:55;;;;;;;15.90;13.27;;;;;;;14.14;69.66;99737.53;5112278;28;20562;-41
2023/11/08 04:00:22;;;;;;;15.85;8.75;;;;;;;14.23;68.97;99725.47;5111844;28;20019;-42
2023/11/08 04:02:47;;;;;;;11.20;6.60;;;;;;;14.09;68.69;99711.47;5112052;28;20096;-41
2023/11/08 04:05:13;;;;;;;18.42;7.00;;;;;;;14.09;68.62;99708.81;5112370;27;20564;-41
2023/11/08 04:07:38;;;;;;;10.35;6.72;;;;;;;13.78;69.06;99709.81;5111486;28;20453;-41
2023/11/08 04:10:05;;;;;;;12.73;7.07;;;;;;;13.60;70.17;99710.66;5111303;28;20055;-41
2023/11/08 04:12:31;;;;;;;12.48;7.15;;;;;;;13.71;69.90;99699.22;5117025;27;20015;-41
2023/11/08 04:14:56;;;;;;;15.23;6.63;;;;;;;13.69;69.53;99712.81;5111237;28;20426;-41
2023/11/08 04:17:22;;;;;;;13.45;7.00;;;;;;;13.89;69.08;99703.72;5110929;28;20024;-41
2023/11/08 04:19:47;;;;;;;12.13;6.97;;;;;;;14.05;68.36;99692.38;5110848;28;20050;-40
2023/11/08 04:22:16;;;;;;;14.35;7.03;;;;;;;14.04;68.08;99688.06;5111176;28;20402;-41
2023/11/08 04:24:42;;;;;;;11.55;6.88;;;;;;;14.11;67.73;99682.63;5110555;28;20023;-39
2023/11/08 04:27:10;;;;;;;11.82;6.82;;;;;;;14.08;68.43;99694.59;5110738;28;20034;-40
2023/11/08 04:29:36;;;;;;;16.48;7.32;;;;;;;14.01;68.83;99691.22;5110781;28;20432;-41
2023/11/08 04:32:02;;;;;;;14.25;6.90;;;;;;;13.98;68.19;99701.53;5110373;28;20546;-40
2023/11/08 04:34:28;;;;;;;13.93;7.00;;;;;;;14.10;68.28;99699.72;5111084;28;20020;-40
2023/11/08 04:36:53;;;;;;;12.00;6.85;;;;;;;14.18;67.97;99706.59;5111125;28;20221;-41
2023/11/08 04:39:21;;;;;;;13.13;7.22;;;;;;;14.22;67.75;99707.78;5110287;28;20209;-40
2023/11/08 04:41:47;;;;;;;15.40;6.97;;;;;;;14.31;67.55;99702.94;5110752;28;20047;-39
2023/11/08 04:44:13;;;;;;;11.70;7.10;;;;;;;14.07;66.58;99666.22;5110285;28;20027;-41
2023/11/08 04:46:41;;;;;;;13.40;7.00;;;;;;;14.24;67.35;99716.38;5108476;28;20035;-39
2023/11/08 04:49:07;;;;;;;11.45;7.22;;;;;;;13.65;69.38;99725.00;5110718;28;20087;-39
2023/11/08 04:51:33;;;;;;;11.05;7.35;;;;;;;13.64;69.62;99735.91;5097836;28;20131;-40
2023/11/08 04:53:58;;;;;;;18.10;10.75;;;;;;;13.79;73.23;99711.47;5106192;28;20030;-40
2023/11/08 04:56:23;;;;;;;14.25;7.32;;;;;;;13.81;70.05;99704.84;5107840;28;20030;-39
2023/11/08 04:58:49;;;;;;;10.25;6.47;;;;;;;13.88;69.37;99707.44;5110547;28;20027;-40
2023/11/08 05:01:15;;;;;;;14.48;7.15;;;;;;;13.78;69.68;99693.78;5110721;28;20467;-42
2023/11/08 05:03:40;;;;;;;14.32;7.55;;;;;;;13.49;70.22;99696.19;5111259;28;20022;-42
2023/11/08 05:06:06;;;;;;;12.05;7.90;;;;;;;13.45;70.92;99677.09;5111179;28;20028;-40
2023/11/08 05:08:31;;;;;;;16.63;8.00;;;;;;;13.38;71.18;99681.69;5111202;28;20395;-42
2023/11/08 05:10:57;;;;;;;19.13;11.48;;;;;;;13.57;70.61;99703.06;5111229;28;20475;-40
2023/11/08 05:13:24;;;;;;;16.00;9.90;;;;;;;13.66;70.45;99709.75;5110431;28;20026;-40
2023/11/08 05:15:50;;;;;;;14.85;7.90;;;;;;;13.69;70.21;99695.97;5108998;28;20027;-41
2023/11/08 05:18:16;;;;;;;20.17;7.72;;;;;;;13.44;70.61;99678.16;5109078;28;20030;-41
2023/11/08 05:20:43;;;;;;;14.63;7.65;;;;;;;13.38;71.18;99684.38;5109257;28;20016;-41
2023/11/08 05:23:09;;;;;;;15.02;7.82;;;;;;;13.64;70.18;99691.25;5108768;28;20489;-41
2023/11/08 05:25:38;;;;;;;11.45;7.45;;;;;;;13.82;69.99;99692.28;5109147;28;20231;-41
2023/11/08 05:28:03;;;;;;;16.92;7.50;;;;;;;13.66;71.43;99697.19;5110208;28;20016;-42
2023/11/08 05:30:30;;;;;;;16.73;8.15;;;;;;;13.60;70.85;99691.94;5111158;28;20027;-42
2023/11/08 05:32:55;;;;;;;15.15;8.40;;;;;;;13.76;70.45;99696.66;5111649;28;20016;-40
2023/11/08 05:35:21;;;;;;;18.83;8.93;;;;;;;13.92;69.92;99703.25;5111102;28;20024;-41
2023/11/08 05:37:48;;;;;;;17.27;9.02;;;;;;;13.88;69.97;99691.38;5114474;28;20032;-40
2023/11/08 05:40:14;;;;;;;21.38;8.70;;;;;;;14.13;69.41;99691.25;5113425;28;20084;-40
2023/11/08 05:42:40;;;;;;;17.35;8.40;;;;;;;14.28;68.48;99698.84;5112120;28;20515;-40
2023/11/08 05:45:07;;;;;;;15.57;7.45;;;;;;;14.12;69.04;99705.66;5112174;28;20066;-43
2023/11/08 05:47:32;;;;;;;13.15;8.10;;;;;;;14.26;68.94;99711.66;5112901;28;20467;-42
2023/11/08 05:49:58;;;;;;;17.85;7.68;;;;;;;14.26;68.88;99727.72;5113492;28;20027;-41
2023/11/08 05:52:24;;;;;;;14.48;8.15;;;;;;;14.14;69.93;99724.97;5113583;28;20088;-41
2023/11/08 05:54:49;;;;;;;14.68;7.13;;;;;;;14.14;69.62;99741.03;5113571;28;20020;-41
2023/11/08 05:57:14;;;;;;;12.82;7.20;;;;;;;14.25;70.00;99756.31;5113586;28;20019;-41
2023/11/08 05:59:43;;;;;;;17.00;8.13;;;;;;;14.12;70.23;99745.78;5113672;28;20103;-40
2023/11/08 06:02:09;;;;;;;16.17;7.35;;;;;;;14.15;69.81;99750.69;5114512;28;20098;-41
2023/11/08 06:04:34;;;;;;;14.27;7.35;;;;;;;14.35;69.42;99738.91;5110633;28;20027;-41
2023/11/08 06:07:00;;;;;;;13.88;7.05;;;;;;;14.33;69.25;99712.34;5109268;28;20529;-43
2023/11/08 06:09:25;;;;;;;11.63;7.30;;;;;;;14.48;68.93;99699.34;5096065;28;20109;-41
2023/11/08 06:11:51;;;;;;;14.38;7.70;;;;;;;14.54;69.31;99702.16;5093901;28;20093;-42
2023/11/08 06:14:16;;;;;;;13.60;7.53;;;;;;;14.72;68.21;99688.72;5093929;28;20030;-44
2023/11/08 06:16:42;;;;;;;9.63;6.65;;;;;;;14.70;67.58;99698.84;5093771;28;20487;-40
2023/11/08 06:19:08;;;;;;;11.55;6.35;;;;;;;14.39;68.75;99705.25;5093884;28;20024;-43
2023/11/08 06:21:34;;;;;;;16.77;6.72;;;;;;;14.28;69.45;99715.72;5093920;28;20502;-41
2023/11/08 06:24:00;;;;;;;15.40;7.07;;;;;;;14.63;68.31;99732.94;5092494;28;20020;-42
2023/11/08 06:26:25;;;;;;;12.90;6.75;;;;;;;14.76;67.90;99730.06;5093522;28;20024;-42
2023/11/08 06:28:52;;;;;;;13.13;6.78;;;;;;;14.83;67.80;99749.53;5093700;28;20089;-41
2023/11/08 06:31:20;;;;;;;16.65;7.13;;;;;;;14.70;67.83;99738.19;5093568;28;20510;-43
2023/11/08 06:33:46;;;;;;;15.88;6.68;;;;;;;14.95;67.12;99741.50;5093673;28;20024;-42
2023/11/08 06:36:13;;;;;;;14.35;7.07;;;;;;;14.60;68.63;99728.03;5093455;28;20476;-40
2023/11/08 06:38:39;;;;;;;17.02;7.40;;;;;;;14.74;67.16;99742.06;5103267;28;20020;-43
2023/11/08 06:41:05;;;;;;;12.82;6.82;;;;;;;14.97;66.69;99731.34;5114139;28;20024;-44
2023/11/08 06:43:30;;;;;;;15.07;7.53;;;;;;;15.14;66.61;99728.78;5113760;28;20019;-41
2023/11/08 06:45:56;;;;;;;20.23;6.85;;;;;;;15.21;65.96;99740.22;5113948;28;20054;-42
2023/11/08 06:48:22;;;;;;;14.60;6.70;;;;;;;15.12;66.76;99725.53;5113333;28;20051;-42
2023/11/08 06:50:47;;;;;;;11.60;6.38;;;;;;;15.45;65.37;99724.09;5113779;28;20467;-44
2023/11/08 06:53:13;;;;;;;13.50;6.50;;;;;;;15.59;65.26;99730.00;5113527;28;20109;-43
2023/11/08 06:55:38;;;;;;;11.60;6.72;;;;;;;15.54;64.97;99730.72;5113026;28;20023;-42
2023/11/08 06:58:07;;;;;;;18.05;6.68;;;;;;;15.38;65.17;99723.41;5112991;28;20031;-42
2023/11/08 07:00:34;;;;;;;16.52;7.72;;;;;;;15.34;65.76;99706.16;5113613;28;20065;-42
2023/11/08 07:02:59;;;;;;;14.77;7.32;;;;;;;15.42;64.55;99720.03;5113971;28;20031;-42
2023/11/08 07:05:25;;;;;;;19.63;8.07;;;;;;;15.86;64.80;99727.66;5113107;28;20032;-43
2023/11/08 07:07:50;;;;;;;15.13;7.07;;;;;;;16.26;63.07;99718.72;5113018;28;20036;-41
2023/11/08 07:10:16;;;;;;;13.38;6.30;;;;;;;16.60;62.69;99716.06;5113127;28;20518;-43
2023/11/08 07:12:41;;;;;;;12.25;6.32;;;;;;;16.83;62.40;99707.06;5113198;28;20030;-43
2023/11/08 07:15:07;;;;;;;13.73;6.53;;;;;;;17.18;60.57;99698.69;5112976;28;20023;-41
2023/11/08 07:17:36;;;;;;;13.10;6.03;;;;;;;17.49;59.33;99691.03;5112631;28;20031;-42
2023/11/08 07:20:01;;;;;;;18.70;7.60;;;;;;;17.92;57.55;99688.59;5113062;28;20024;-42
2023/11/08 07:22:27;;;;;;;12.73;6.50;;;;;;;18.08;57.13;99687.66;5112902;28;20526;-43
2023/11/08 07:24:53;;;;;;;14.52;6.47;;;;;;;18.26;57.90;99688.38;5113171;28;20215;-41
2023/11/08 07:27:19;;;;;;;11.45;6.13;;;;;;;18.66;56.89;99674.44;5113053;28;20024;-42
2023/11/08 07:29:44;;;;;;;12.18;6.30;;;;;;;18.89;56.34;99681.38;5112541;28;20031;-43
2023/11/08 07:32:13;;;;;;;11.48;5.65;;;;;;;19.42;54.66;99669.75;5112359;28;20114;-42
2023/11/08 07:34:41;;;;;;;9.00;5.40;;;;;;;19.66;54.10;99683.63;5112784;28;20514;-43
2023/11/08 07:37:07;;;;;;;11.38;5.55;;;;;;;19.45;53.43;99680.03;5112622;28;20107;-41
2023/11/08 07:39:32;;;;;;;11.63;5.93;;;;;;;19.70;53.55;99682.84;5094132;28;20096;-42
2023/11/08 07:41:58;;;;;;;11.77;5.97;;;;;;;20.14;52.88;99680.78;5112518;28;20063;-40
2023/11/08 07:44:24;;;;;;;16.25;6.13;;;;;;;20.54;50.95;99680.00;5112704;28;20035;-41
2023/11/08 07:46:49;;;;;;;10.65;6.03;;;;;;;20.48;50.45;99678.38;5112248;28;20126;-41
2023/11/08 07:49:15;;;;;;;13.27;6.43;;;;;;;20.60;50.78;99678.97;5112313;28;20035;-44
2023/11/08 07:51:43;;;;;;;12.77;6.70;;;;;;;20.98;49.98;99678.63;5112458;28;20028;-42
2023/11/08 07:54:10;;;;;;;13.30;5.88;;;;;;;21.09;49.71;99675.66;5112474;28;20026;-41
2023/11/08 07:56:39;;;;;;;14.90;5.20;;;;;;;21.24;48.85;99687.50;5112636;28;20038;-41
2023/11/08 07:59:04;;;;;;;12.82;6.20;;;;;;;20.77;50.16;99694.91;5111507;28;20547;-41
2023/11/08 08:01:31;;;;;;;11.52;5.88;;;;;;;21.11;49.25;99682.66;5112502;28;20024;-43
2023/11/08 08:03:57;;;;;;;10.57;5.20;;;;;;;21.51;49.08;99684.44;5112272;28;20122;-39
2023/11/08 08:06:23;;;;;;;9.68;5.25;;;;;;;21.84;48.29;99677.53;5112117;28;20099;-41
2023/11/08 08:08:49;;;;;;;11.15;5.30;;;;;;;21.86;48.40;99680.75;5112346;28;20479;-40
2023/11/08 08:11:14;;;;;;;11.00;5.55;;;;;;;22.06;47.96;99682.50;5112174;28;20517;-41
2023/11/08 08:13:40;;;;;;;11.45;5.95;;;;;;;21.63;48.38;99686.84;5112164;28;20023;-40
2023/11/08 08:16:05;;;;;;;11.27;5.55;;;;;;;21.70;48.07;99673.78;5112068;28;20031;-40
2023/11/08 08:18:32;;;;;;;11.13;5.65;;;;;;;21.86;48.01;99683.47;5112128;28;20483;-41
2023/11/08 08:20:58;;;;;;;12.18;5.20;;;;;;;21.74;48.30;99690.28;5111663;28;20059;-40
2023/11/08 08:23:24;;;;;;;11.48;6.43;;;;;;;22.06;47.65;99687.13;5111571;28;20117;-40
2023/11/08 08:25:49;;;;;;;9.68;5.32;;;;;;;22.33;46.61;99691.31;5111947;28;20229;-40
2023/11/08 08:28:15;;;;;;;14.43;5.68;;;;;;;22.48;46.49;99677.63;5112101;28;20036;-41
2023/11/08 08:30:40;;;;;;;14.75;5.35;;;;;;;22.52;46.45;99689.53;5112225;28;20027;-39
2023/11/08 08:33:06;;;;;;;13.82;5.40;;;;;;;22.41;46.76;99677.16;5111468;28;20461;-42
2023/11/08 08:35:32;;;;;;;14.15;5.50;;;;;;;22.53;45.81;99674.88;5111419;28;20467;-40
2023/11/08 08:38:01;;;;;;;8.68;5.15;;;;;;;22.16;46.87;99678.94;5111430;28;20027;-42
2023/11/08 08:40:27;;;;;;;10.13;4.85;;;;;;;22.14;47.16;99654.03;5111475;28;20039;-44
2023/11/08 08:42:52;;;;;;;12.85;5.07;;;;;;;22.22;46.82;99666.97;5111702;28;20498;-42
2023/11/08 08:45:18;;;;;;;10.35;4.93;;;;;;;22.32;46.79;99663.41;5111619;28;20501;-40
2023/11/08 08:47:44;;;;;;;10.57;5.03;;;;;;;22.62;46.33;99661.53;5111299;28;20047;-43
2023/11/08 08:50:11;;;;;;;12.25;5.10;;;;;;;22.50;46.83;99678.16;5111593;28;20040;-39
2023/11/08 08:52:40;;;;;;;11.70;4.90;;;;;;;22.35;46.96;99668.28;5111539;28;20035;-42
2023/11/08 08:55:06;;;;;;;8.20;4.47;;;;;;;22.04;47.59;99664.94;5111297;28;20173;-39
2023/11/08 08:57:32;;;;;;;9.88;5.00;;;;;;;22.13;47.10;99670.56;5111405;28;20110;-40
2023/11/08 08:59:58;;;;;;;13.93;5.30;;;;;;;22.22;47.78;99675.09;5110899;28;20022;-45
2023/11/08 09:02:25;;;;;;;10.00;5.00;;;;;;;22.31;47.24;99682.66;5093478;28;20403;-40
2023/11/08 09:04:51;;;;;;;8.65;4.93;;;;;;;22.29;47.39;99671.28;5092767;28;20027;-40
2023/11/08 09:07:17;;;;;;;10.98;4.82;;;;;;;21.95;48.46;99680.16;5111059;28;20617;-39
2023/11/08 09:09:42;;;;;;;8.60;4.80;;;;;;;21.34;49.50;99686.66;5111264;28;20031;-39
2023/11/08 09:12:08;;;;;;;9.50;4.40;;;;;;;22.08;48.55;99679.53;5115351;28;20032;-43
2023/11/08 09:14:33;;;;;;;11.23;4.78;;;;;;;22.60;47.23;99674.56;5114999;28;20080;-40
2023/11/08 09:16:59;;;;;;;12.77;4.68;;;;;;;22.12;48.17;99675.16;5115050;28;20080;-38
2023/11/08 09:19:25;;;;;;;10.65;4.75;;;;;;;21.59;49.49;99662.22;5115369;28;20553;-38
2023/11/08 09:21:50;;;;;;;9.57;4.78;;;;;;;21.80;49.22;99656.66;5115309;28;20062;-39
2023/11/08 09:24:16;;;;;;;10.45;4.20;;;;;;;22.39;47.34;99647.63;5115388;28;20039;-40
2023/11/08 09:26:42;;;;;;;9.05;4.03;;;;;;;22.67;47.23;99642.47;5115163;28;20027;-38
2023/11/08 09:29:08;;;;;;;9.27;4.57;;;;;;;23.00;46.08;99635.38;5115505;28;20023;-42
2023/11/08 09:31:34;;;;;;;7.93;4.32;;;;;;;23.57;45.28;99651.81;5115376;28;20030;-40
2023/11/08 09:34:00;;;;;;;9.18;4.07;;;;;;;23.35;45.10;99654.25;5114905;28;20026;-40
2023/11/08 09:36:29;;;;;;;9.50;4.53;;;;;;;23.05;45.86;99642.66;5115188;28;20031;-40
2023/11/08 09:38:54;;;;;;;10.27;4.30;;;;;;;22.53;47.64;99631.50;5114730;28;20108;-38
2023/11/08 09:41:21;;;;;;;8.40;4.00;;;;;;;23.32;45.81;99622.25;5114871;28;20059;-41
2023/11/08 09:43:49;;;;;;;10.73;3.90;;;;;;;23.87;44.42;99619.09;5115045;28;20102;-41
2023/11/08 09:46:16;;;;;;;8.45;3.83;;;;;;;23.66;45.09;99613.91;5114982;28;20055;-42
2023/11/08 09:48:45;;;;;;;8.13;3.30;;;;;;;23.66;44.75;99613.13;5115254;28;20024;-40
2023/11/08 09:51:14;;;;;;;7.15;3.38;;;;;;;24.20;44.30;99611.78;5115250;28;20040;-43
2023/11/08 09:53:43;;;;;;;7.43;3.40;;;;;;;24.42;43.63;99592.09;5114928;28;20032;-40
2023/11/08 09:56:09;;;;;;;7.93;3.67;;;;;;;24.82;42.56;99588.94;5114888;28;20031;-42
2023/11/08 09:58:40;;;;;;;9.52;3.35;;;;;;;25.05;42.34;99582.47;5114692;28;20080;-43
2023/11/08 10:01:06;;;;;;;7.78;3.60;;;;;;;25.09;42.22;99574.50;5096308;28;20027;-37
2023/11/08 10:03:34;;;;;;;7.03;3.47;;;;;;;25.38;41.71;99562.50;5114361;28;20115;-39
2023/11/08 10:06:00;;;;;;;10.05;3.47;;;;;;;25.27;40.75;99549.13;5114660;28;20019;-40
2023/11/08 10:08:25;;;;;;;10.48;3.50;;;;;;;25.41;40.69;99551.00;5114499;28;20024;-42
2023/11/08 10:10:53;;;;;;;8.15;3.42;;;;;;;25.32;40.75;99554.47;5114889;28;20024;-43
2023/11/08 10:13:18;;;;;;;7.60;3.22;;;;;;;25.65;41.01;99543.34;5114355;28;20027;-40
2023/11/08 10:15:56;;;;;;;10.07;3.70;;;;;;;25.92;40.64;99545.16;5114391;28;20372;-39
2023/11/08 10:18:27;;;;;;;7.30;3.58;;;;;;;25.88;40.64;99532.47;5114213;28;20054;-42
2023/11/08 10:20:52;;;;;;;7.00;3.50;;;;;;;26.09;39.90;99530.84;5114436;28;20030;-40
2023/11/08 10:23:25;;;;;;;11.20;3.40;;;;;;;26.25;38.96;99519.53;5113386;28;20027;-43
2023/11/08 10:26:14;;;;;;;12.60;3.70;;;;;;;26.38;38.42;99526.81;5113923;28;20027;-39
2023/11/08 10:29:05;;;;;;;8.80;3.70;;;;;;;26.60;38.12;99531.44;5113938;28;20041;-43
2023/11/08 10:31:33;;;;;;;9.57;3.25;;;;;;;26.54;38.04;99527.22;5113644;28;20023;-40
2023/11/08 10:34:03;;;;;;;6.63;3.45;;;;;;;26.55;37.20;99528.03;5113478;28;20536;-39
2023/11/08 10:36:30;;;;;;;9.85;4.05;;;;;;;26.07;38.02;99526.84;5113327;28;20034;-42
2023/11/08 10:38:56;;;;;;;12.45;3.75;;;;;;;26.16;38.40;99526.88;5113466;28;20031;-40
2023/11/08 10:41:22;;;;;;;9.52;3.65;;;;;;;26.45;37.79;99537.28;5113886;28;20032;-40
2023/11/08 10:43:47;;;;;;;9.40;3.70;;;;;;;26.58;37.91;99541.84;5113639;28;20031;-40
2023/11/08 10:46:13;;;;;;;10.65;3.30;;;;;;;26.31;37.46;99542.81;5113297;28;20253;-40
2023/11/08 10:48:41;;;;;;;7.68;3.35;;;;;;;26.41;37.73;99542.56;5113950;28;20020;-43
2023/11/08 10:51:06;;;;;;;8.80;4.00;;;;;;;26.40;37.54;99542.88;5113677;28;20077;-40
2023/11/08 10:53:32;;;;;;;9.75;3.75;;;;;;;25.58;38.91;99536.72;5113479;28;20028;-40
2023/11/08 10:56:01;;;;;;;7.50;3.83;;;;;;;25.84;38.39;99531.47;5113791;28;20027;-40
2023/11/08 10:58:38;;;;;;;11.18;4.25;;;;;;;25.38;39.20;99529.81;5113528;28;20038;-39
2023/11/08 11:01:04;;;;;;;7.75;4.47;;;;;;;25.51;39.64;99532.50;5113653;28;20114;-40
2023/11/08 11:03:32;;;;;;;8.27;3.63;;;;;;;25.89;39.15;99553.13;5113385;28;20038;-43
2023/11/08 11:06:01;;;;;;;8.77;3.50;;;;;;;26.00;38.67;99548.28;5113663;28;20055;-41
2023/11/08 11:08:29;;;;;;;9.02;3.95;;;;;;;25.97;38.33;99563.34;5113224;28;20419;-42
2023/11/08 11:10:55;;;;;;;9.88;4.20;;;;;;;25.93;38.59;99565.03;5113288;28;20032;-40
2023/11/08 11:13:40;;;;;;;10.25;4.32;;;;;;;25.71;39.55;99554.94;5113431;28;20019;-43
2023/11/08 11:16:22;;;;;;;9.25;4.47;;;;;;;25.97;39.29;99549.72;5113017;28;20185;-40
2023/11/08 11:18:54;;;;;;;10.10;4.00;;;;;;;25.46;40.10;99553.63;5113263;28;20039;-40
2023/11/08 11:21:24;;;;;;;13.68;3.85;;;;;;;25.38;39.78;99538.81;5113229;28;20024;-43
2023/11/08 11:23:49;;;;;;;11.68;3.35;;;;;;;25.16;40.46;99561.31;5113198;28;20028;-42